createdAt,value
2017-12-15T00:01:10.981Z,64.50
2017-12-15T00:03:39.282Z,64.40
2017-12-15T00:06:07.525Z,63.90
2017-12-15T00:08:36.553Z,64.30
2017-12-15T00:11:04.799Z,64.20
2017-12-15T00:13:33.100Z,64.30
2017-12-15T00:16:01.363Z,63.90
2017-12-15T00:18:29.592Z,63.90
2017-12-15T00:20:57.854Z,64.10
2017-12-15T00:23:26.140Z,64.60
2017-12-15T00:25:54.440Z,64.60
2017-12-15T00:28:22.726Z,64.50
2017-12-15T00:30:51.711Z,64.60
2017-12-15T00:33:20.797Z,64.70
2017-12-15T00:35:49.071Z,64.60
2017-12-15T00:38:17.325Z,64.50
2017-12-15T00:40:45.562Z,64.80
2017-12-15T00:43:14.661Z,64.70
2017-12-15T00:45:42.921Z,64.50
2017-12-15T00:48:11.928Z,64.50
2017-12-15T00:50:40.219Z,64.50
2017-12-15T00:53:08.457Z,64.60
2017-12-15T00:55:37.509Z,64.50
2017-12-15T00:58:05.716Z,64.50
2017-12-15T01:00:33.948Z,64.40
2017-12-15T01:03:02.239Z,64.30
2017-12-15T01:05:30.479Z,64.40
2017-12-15T01:07:59.485Z,64.50
2017-12-15T01:10:27.747Z,64.50
2017-12-15T01:12:56.027Z,64.60
2017-12-15T01:15:24.595Z,64.80
2017-12-15T01:17:53.656Z,64.70
2017-12-15T01:20:21.952Z,64.60
2017-12-15T01:22:50.168Z,64.20
2017-12-15T01:25:18.435Z,64.60
2017-12-15T01:27:47.469Z,64.60
2017-12-15T01:30:15.689Z,64.50
2017-12-15T01:32:44.709Z,64.60
2017-12-15T01:35:12.940Z,64.60
2017-12-15T01:37:41.214Z,64.50
2017-12-15T01:40:09.488Z,64.60
2017-12-15T01:42:37.744Z,64.50
2017-12-15T01:45:06.043Z,64.20
2017-12-15T01:47:34.257Z,64.30
2017-12-15T01:50:02.565Z,64.20
2017-12-15T01:52:30.796Z,64.60
2017-12-15T01:54:59.844Z,64.60
2017-12-15T01:57:28.072Z,64.60
2017-12-15T01:59:57.528Z,64.60
2017-12-15T02:02:25.798Z,64.50
2017-12-15T02:04:54.025Z,64.90
2017-12-15T02:07:23.098Z,65.30
2017-12-15T02:09:51.330Z,65.30
2017-12-15T02:12:19.577Z,65.20
2017-12-15T02:14:48.571Z,65.70
2017-12-15T02:17:17.596Z,65.70
2017-12-15T02:19:45.871Z,65.60
2017-12-15T02:22:14.135Z,66.00
2017-12-15T02:24:42.380Z,65.30
2017-12-15T02:27:10.647Z,66.30
2017-12-15T02:29:38.894Z,66.50
2017-12-15T02:32:07.177Z,66.20
2017-12-15T02:34:35.481Z,66.00
2017-12-15T02:37:03.745Z,66.40
2017-12-15T02:39:32.032Z,66.80
2017-12-15T02:42:00.324Z,66.80
2017-12-15T02:44:28.581Z,66.90
2017-12-15T02:46:56.830Z,67.90
2017-12-15T02:49:25.104Z,68.10
2017-12-15T02:51:53.365Z,67.30
2017-12-15T02:54:21.604Z,66.70
2017-12-15T02:56:49.845Z,68.20
2017-12-15T02:59:18.137Z,68.20
2017-12-15T03:01:46.376Z,68.50
2017-12-15T03:04:14.667Z,67.90
2017-12-15T03:06:42.940Z,67.40
2017-12-15T03:09:11.259Z,67.90
2017-12-15T03:11:39.519Z,69.30
2017-12-15T03:14:07.760Z,68.70
2017-12-15T03:16:36.069Z,68.70
2017-12-15T03:19:04.339Z,68.30
2017-12-15T03:21:32.858Z,68.00
2017-12-15T03:24:01.164Z,67.50
2017-12-15T03:26:29.580Z,68.30
2017-12-15T03:28:58.286Z,67.70
2017-12-15T03:31:26.576Z,67.70
2017-12-15T03:33:54.848Z,68.00
2017-12-15T03:36:23.071Z,67.80
2017-12-15T03:38:51.363Z,67.70
2017-12-15T03:41:19.596Z,68.40
2017-12-15T03:43:48.672Z,69.00
2017-12-15T03:46:17.849Z,68.90
2017-12-15T03:48:46.111Z,69.30
2017-12-15T03:51:14.402Z,70.80
2017-12-15T03:53:43.072Z,71.60
2017-12-15T03:56:11.366Z,71.90
2017-12-15T03:58:39.618Z,70.70
2017-12-15T04:01:07.868Z,70.90
2017-12-15T04:03:36.910Z,72.80
2017-12-15T04:06:05.904Z,72.70
2017-12-15T04:08:34.148Z,72.90
2017-12-15T04:11:02.681Z,72.70
2017-12-15T04:13:30.905Z,72.20
2017-12-15T04:15:59.863Z,72.80
2017-12-15T04:18:28.143Z,72.10
2017-12-15T04:20:56.376Z,72.20
2017-12-15T04:23:24.692Z,72.10
2017-12-15T04:25:52.924Z,71.60
2017-12-15T04:28:21.199Z,71.20
2017-12-15T04:30:49.441Z,71.10
2017-12-15T04:33:18.444Z,71.20
2017-12-15T04:35:46.748Z,70.50
2017-12-15T04:38:15.024Z,70.30
2017-12-15T04:40:43.344Z,70.20
2017-12-15T04:43:11.621Z,69.30
2017-12-15T04:45:39.898Z,70.40
2017-12-15T04:48:08.146Z,69.60
2017-12-15T04:50:36.388Z,69.60
2017-12-15T04:53:04.634Z,70.20
2017-12-15T04:55:32.866Z,70.30
2017-12-15T04:58:01.170Z,70.00
2017-12-15T05:00:30.211Z,69.40
2017-12-15T05:02:59.213Z,69.50
2017-12-15T05:05:27.494Z,69.40
2017-12-15T05:07:55.728Z,69.60
2017-12-15T05:10:24.014Z,70.30
2017-12-15T05:12:52.244Z,70.80
2017-12-15T05:15:20.516Z,71.60
2017-12-15T05:17:48.760Z,71.50
2017-12-15T05:20:17.760Z,70.80
2017-12-15T05:22:46.021Z,70.80
2017-12-15T05:25:15.014Z,69.50
2017-12-15T05:27:44.890Z,70.20
2017-12-15T05:30:13.112Z,70.10
2017-12-15T05:32:42.155Z,70.20
2017-12-15T05:35:10.435Z,70.30
2017-12-15T05:37:38.706Z,70.00
2017-12-15T05:40:07.759Z,69.60
2017-12-15T05:42:36.802Z,69.20
2017-12-15T05:45:05.069Z,69.20
2017-12-15T05:47:33.330Z,69.50
2017-12-15T05:50:07.644Z,69.00
2017-12-15T05:52:41.888Z,69.00
2017-12-15T05:55:10.183Z,68.90
2017-12-15T06:00:45.296Z,68.70
2017-12-15T06:03:19.230Z,68.60
2017-12-15T06:05:48.295Z,68.90
2017-12-15T06:08:16.598Z,68.70
2017-12-15T06:10:44.855Z,69.00
2017-12-15T06:13:13.132Z,69.50
2017-12-15T06:15:41.406Z,68.70
2017-12-15T06:18:09.725Z,69.20
2017-12-15T06:20:38.732Z,69.60
2017-12-15T06:23:07.065Z,68.90
2017-12-15T06:25:35.350Z,68.90
2017-12-15T06:28:04.396Z,68.70
2017-12-15T06:30:32.637Z,68.70
2017-12-15T06:33:00.873Z,68.20
2017-12-15T06:35:29.192Z,68.10
2017-12-15T06:37:58.196Z,67.90
2017-12-15T06:40:26.516Z,67.90
2017-12-15T06:42:54.762Z,67.60
2017-12-15T06:45:23.099Z,67.40
2017-12-15T06:47:51.387Z,67.20
2017-12-15T06:50:20.430Z,67.10
2017-12-15T06:52:48.728Z,67.10
2017-12-15T06:55:17.007Z,67.20
2017-12-15T06:57:45.260Z,67.40
2017-12-15T07:00:13.498Z,67.20
2017-12-15T07:02:41.820Z,67.10
2017-12-15T07:05:10.113Z,67.30
2017-12-15T07:07:38.350Z,66.70
2017-12-15T07:10:06.621Z,66.60
2017-12-15T07:12:34.902Z,66.60
2017-12-15T07:15:03.193Z,66.80
2017-12-15T07:17:31.500Z,66.60
2017-12-15T07:19:59.761Z,66.80
2017-12-15T07:22:28.003Z,66.70
2017-12-15T07:24:56.260Z,66.40
2017-12-15T07:27:24.538Z,66.60
2017-12-15T07:29:53.601Z,66.70
2017-12-15T07:32:21.864Z,66.50
2017-12-15T07:34:50.129Z,66.20
2017-12-15T07:37:18.374Z,66.00
2017-12-15T07:39:46.651Z,66.00
2017-12-15T07:42:14.904Z,66.50
2017-12-15T07:44:43.962Z,65.90
2017-12-15T07:47:12.248Z,65.80
2017-12-15T07:49:41.444Z,66.50
2017-12-15T07:52:09.778Z,65.90
2017-12-15T07:54:38.075Z,66.20
2017-12-15T07:57:06.350Z,65.60
2017-12-15T07:59:34.627Z,66.00
2017-12-15T08:02:02.865Z,66.10
2017-12-15T08:04:31.893Z,65.50
2017-12-15T08:07:00.145Z,65.40
2017-12-15T08:09:28.493Z,65.40
2017-12-15T08:11:56.728Z,65.70
2017-12-15T08:14:24.966Z,65.70
2017-12-15T08:16:53.226Z,65.20
2017-12-15T08:19:22.241Z,65.50
2017-12-15T08:21:50.512Z,65.00
2017-12-15T08:24:18.805Z,65.20
2017-12-15T08:26:47.039Z,65.00
2017-12-15T08:29:15.311Z,65.10
2017-12-15T08:31:43.549Z,65.50
2017-12-15T08:34:11.876Z,65.10
2017-12-15T08:36:40.147Z,65.00
2017-12-15T08:39:08.387Z,65.00
2017-12-15T08:41:36.652Z,65.50
2017-12-15T08:44:04.931Z,64.50
2017-12-15T08:46:33.267Z,64.80
2017-12-15T08:49:02.324Z,65.10
2017-12-15T08:51:30.592Z,65.10
2017-12-15T08:53:58.884Z,65.10
2017-12-15T08:56:27.122Z,65.30
2017-12-15T08:58:56.367Z,65.20
2017-12-15T09:01:24.633Z,65.00
2017-12-15T09:03:58.684Z,64.90
2017-12-15T09:06:27.709Z,65.10
2017-12-15T09:08:55.948Z,65.10
2017-12-15T09:11:25.007Z,64.50
2017-12-15T09:13:53.252Z,64.40
2017-12-15T09:16:21.556Z,64.90
2017-12-15T09:18:49.798Z,64.80
2017-12-15T09:21:18.059Z,65.00
2017-12-15T09:23:46.349Z,65.00
2017-12-15T09:26:14.651Z,64.80
2017-12-15T09:28:42.894Z,64.70
2017-12-15T09:31:11.164Z,64.90
2017-12-15T09:33:40.205Z,65.00
2017-12-15T09:36:08.477Z,65.00
2017-12-15T09:38:36.714Z,64.90
2017-12-15T09:41:04.982Z,64.50
2017-12-15T09:43:33.993Z,64.30
2017-12-15T09:46:02.233Z,64.30
2017-12-15T09:48:31.273Z,64.50
2017-12-15T09:50:59.530Z,64.40
2017-12-15T09:53:27.825Z,64.00
2017-12-15T09:55:56.151Z,64.30
2017-12-15T09:58:24.378Z,64.00
2017-12-15T10:00:52.676Z,64.30
2017-12-15T10:03:21.068Z,64.10
2017-12-15T10:05:49.352Z,64.40
2017-12-15T10:08:17.596Z,63.60
2017-12-15T10:10:45.878Z,64.20
2017-12-15T10:13:14.128Z,63.80
2017-12-15T10:15:42.399Z,63.80
2017-12-15T10:18:11.403Z,64.50
2017-12-15T10:20:39.653Z,64.50
2017-12-15T10:23:07.960Z,64.50
2017-12-15T10:25:36.215Z,63.90
2017-12-15T10:28:04.517Z,64.10
2017-12-15T10:30:32.764Z,64.10
2017-12-15T10:33:01.823Z,62.50
2017-12-15T10:35:30.110Z,62.50
2017-12-15T10:37:58.428Z,64.60
2017-12-15T10:40:26.688Z,62.50
2017-12-15T10:42:55.680Z,61.50
2017-12-15T10:45:24.722Z,63.40
2017-12-15T10:47:53.325Z,63.30
2017-12-15T10:50:21.631Z,59.60
2017-12-15T10:52:49.919Z,60.00
2017-12-15T10:55:18.267Z,60.60
2017-12-15T10:57:46.577Z,60.90
2017-12-15T11:00:15.634Z,61.20
2017-12-15T11:02:43.850Z,61.10
2017-12-15T11:05:12.109Z,60.40
2017-12-15T11:07:41.160Z,61.40
2017-12-15T11:10:09.452Z,61.40
2017-12-15T11:12:37.701Z,62.30
2017-12-15T11:15:06.015Z,61.90
2017-12-15T11:17:34.254Z,62.30
2017-12-15T11:20:02.510Z,62.10
2017-12-15T11:22:30.775Z,62.70
2017-12-15T11:24:59.021Z,62.20
2017-12-15T11:27:27.318Z,61.50
2017-12-15T11:29:56.381Z,61.80
2017-12-15T11:32:24.760Z,61.80
2017-12-15T11:34:53.066Z,60.60
2017-12-15T11:37:22.112Z,61.60
2017-12-15T11:39:50.401Z,61.60
2017-12-15T11:42:18.699Z,61.10
2017-12-15T11:44:47.007Z,61.00
2017-12-15T11:47:15.426Z,61.10
2017-12-15T11:49:43.658Z,60.90
2017-12-15T11:52:11.967Z,61.10
2017-12-15T11:54:40.816Z,61.60
2017-12-15T11:57:09.097Z,60.90
2017-12-15T11:59:38.231Z,61.70
2017-12-15T12:02:06.497Z,61.80
2017-12-15T12:04:34.800Z,61.10
2017-12-15T12:07:03.080Z,61.00
2017-12-15T12:09:31.341Z,60.80
2017-12-15T12:11:59.602Z,61.60
2017-12-15T12:14:27.926Z,62.10
2017-12-15T12:16:56.205Z,60.50
2017-12-15T12:19:24.497Z,60.60
2017-12-15T12:21:52.776Z,60.30
2017-12-15T12:24:21.036Z,60.60
2017-12-15T12:26:49.356Z,59.70
2017-12-15T12:29:17.636Z,59.60
2017-12-15T12:31:45.905Z,59.80
2017-12-15T12:34:14.170Z,59.70
2017-12-15T12:36:42.460Z,60.70
2017-12-15T12:39:10.751Z,60.20
2017-12-15T12:41:39.044Z,59.80
2017-12-15T12:44:07.346Z,59.90
2017-12-15T12:46:35.636Z,60.20
2017-12-15T12:49:03.916Z,60.00
2017-12-15T12:51:32.275Z,60.20
2017-12-15T12:54:00.514Z,60.90
2017-12-15T12:56:28.810Z,60.70
2017-12-15T12:58:57.060Z,60.60
2017-12-15T13:01:25.392Z,61.00
2017-12-15T13:03:53.690Z,60.30
2017-12-15T13:06:22.729Z,61.00
2017-12-15T13:08:51.012Z,61.00
2017-12-15T13:11:19.240Z,60.50
2017-12-15T13:13:47.874Z,60.30
2017-12-15T13:16:16.117Z,61.10
2017-12-15T13:18:44.421Z,61.50
2017-12-15T13:21:12.720Z,61.20
2017-12-15T13:23:40.980Z,61.60
2017-12-15T13:26:09.697Z,61.20
2017-12-15T13:28:37.951Z,61.50
2017-12-15T13:31:06.229Z,61.30
2017-12-15T13:33:34.542Z,60.60
2017-12-15T13:36:02.811Z,61.40
2017-12-15T13:38:31.074Z,61.70
2017-12-15T13:40:59.386Z,60.90
2017-12-15T13:43:28.883Z,60.40
2017-12-15T13:45:57.183Z,60.30
2017-12-15T13:48:25.496Z,60.40
2017-12-15T13:50:54.634Z,60.80
2017-12-15T13:53:23.694Z,62.10
2017-12-15T13:55:51.993Z,61.40
2017-12-15T13:58:21.003Z,61.30
2017-12-15T14:00:50.358Z,61.30
2017-12-15T14:03:18.663Z,61.30
2017-12-15T14:05:46.915Z,62.30
2017-12-15T14:08:15.223Z,62.20
2017-12-15T14:10:44.234Z,62.10
2017-12-15T14:13:12.538Z,62.20
2017-12-15T14:15:40.768Z,62.10
2017-12-15T14:18:10.143Z,62.30
2017-12-15T14:20:38.446Z,62.30
2017-12-15T14:23:06.727Z,62.40
2017-12-15T14:25:35.749Z,62.30
2017-12-15T14:28:04.091Z,62.20
2017-12-15T14:30:32.388Z,62.30
2017-12-15T14:33:01.455Z,62.20
2017-12-15T14:35:29.732Z,62.20
2017-12-15T14:37:58.013Z,62.20
2017-12-15T14:40:26.647Z,61.80
2017-12-15T14:42:54.904Z,61.70
2017-12-15T14:45:23.180Z,61.20
2017-12-15T14:47:51.479Z,62.00
2017-12-15T14:50:19.764Z,61.60
2017-12-15T14:52:48.069Z,61.70
2017-12-15T14:55:16.345Z,61.90
2017-12-15T14:57:44.655Z,62.10
2017-12-15T15:00:13.779Z,62.10
2017-12-15T15:02:42.033Z,62.20
2017-12-15T15:05:11.095Z,62.30
2017-12-15T15:07:39.397Z,62.30
2017-12-15T15:10:07.706Z,62.40
2017-12-15T15:12:36.027Z,62.80
2017-12-15T15:15:04.755Z,62.50
2017-12-15T15:17:33.023Z,61.70
2017-12-15T15:20:02.086Z,62.70
2017-12-15T15:22:30.439Z,62.70
2017-12-15T15:24:58.692Z,63.20
2017-12-15T15:27:26.983Z,63.30
2017-12-15T15:29:55.289Z,63.90
2017-12-15T15:32:23.968Z,63.90
2017-12-15T15:34:52.264Z,64.40
2017-12-15T15:37:20.626Z,64.50
2017-12-15T15:39:49.008Z,64.90
2017-12-15T15:42:17.287Z,64.60
2017-12-15T15:44:45.878Z,65.40
2017-12-15T15:47:14.183Z,65.50
2017-12-15T15:49:42.541Z,65.80
2017-12-15T15:52:10.902Z,68.00
2017-12-15T15:54:39.224Z,66.70
2017-12-15T15:57:08.613Z,66.20
2017-12-15T15:59:37.683Z,66.10
2017-12-15T16:02:05.948Z,66.10
2017-12-15T16:04:34.280Z,65.70
2017-12-15T16:07:02.653Z,66.00
2017-12-15T16:09:31.016Z,66.00
2017-12-15T16:12:00.102Z,66.50
2017-12-15T16:14:28.744Z,66.30
2017-12-15T16:16:57.004Z,66.20
2017-12-15T16:19:25.316Z,66.20
2017-12-15T16:21:53.572Z,66.50
2017-12-15T16:24:21.872Z,66.00
2017-12-15T16:26:50.112Z,66.10
2017-12-15T16:29:18.456Z,66.10
2017-12-15T16:31:47.892Z,65.90
2017-12-15T16:34:16.140Z,65.90
2017-12-15T16:36:45.194Z,67.00
2017-12-15T16:39:13.440Z,66.30
2017-12-15T16:41:41.702Z,66.00
2017-12-15T16:44:09.978Z,66.50
2017-12-15T16:46:38.277Z,66.20
2017-12-15T16:49:06.852Z,66.00
2017-12-15T16:51:35.173Z,66.20
2017-12-15T16:54:03.424Z,66.20
2017-12-15T16:56:31.787Z,66.80
2017-12-15T16:59:00.056Z,66.80
2017-12-15T17:01:28.666Z,66.60
2017-12-15T17:03:56.954Z,66.70
2017-12-15T17:06:25.220Z,66.80
2017-12-15T17:08:53.530Z,66.70
2017-12-15T17:11:22.281Z,66.80
2017-12-15T17:13:50.552Z,67.20
2017-12-15T17:16:18.839Z,66.90
2017-12-15T17:18:47.564Z,67.20
2017-12-15T17:21:16.624Z,66.90
2017-12-15T17:23:44.857Z,66.90
2017-12-15T17:26:13.169Z,67.50
2017-12-15T17:28:41.448Z,67.40
2017-12-15T17:31:10.148Z,67.00
2017-12-15T17:33:38.440Z,67.20
2017-12-15T17:36:06.692Z,67.40
2017-12-15T17:38:34.982Z,67.30
2017-12-15T17:41:03.223Z,67.40
2017-12-15T17:43:31.476Z,67.20
2017-12-15T17:45:59.709Z,67.60
2017-12-15T17:48:28.356Z,67.70
2017-12-15T17:50:56.643Z,67.30
2017-12-15T17:53:24.917Z,67.50
2017-12-15T17:55:53.226Z,67.10
2017-12-15T17:58:21.503Z,67.30
2017-12-15T18:00:49.781Z,67.10
2017-12-15T18:03:18.088Z,67.10
2017-12-15T18:05:47.566Z,67.40
2017-12-15T18:08:15.862Z,67.40
2017-12-15T18:10:44.870Z,67.40
2017-12-15T18:13:13.122Z,67.30
2017-12-15T18:15:42.187Z,67.30
2017-12-15T18:18:10.872Z,67.20
2017-12-15T18:20:39.116Z,67.00
2017-12-15T18:23:07.377Z,67.10
2017-12-15T18:25:35.651Z,67.60
2017-12-15T18:28:03.948Z,67.40
2017-12-15T18:30:32.525Z,67.10
2017-12-15T18:33:00.789Z,67.40
2017-12-15T18:35:29.810Z,67.30
2017-12-15T18:37:58.092Z,67.30
2017-12-15T18:40:26.342Z,67.60
2017-12-15T18:42:54.942Z,67.30
2017-12-15T18:45:23.164Z,67.20
2017-12-15T18:47:51.410Z,67.60
2017-12-15T18:50:19.676Z,67.90
2017-12-15T18:52:47.952Z,68.00
2017-12-15T18:55:16.617Z,68.00
2017-12-15T18:57:44.951Z,67.70
2017-12-15T19:00:13.349Z,67.50
2017-12-15T19:02:41.623Z,68.20
2017-12-15T19:05:10.652Z,67.60
2017-12-15T19:07:38.984Z,67.40
2017-12-15T19:10:07.231Z,67.60
2017-12-15T19:12:35.859Z,67.20
2017-12-15T19:15:04.169Z,67.70
2017-12-15T19:17:32.408Z,67.40
2017-12-15T19:20:01.517Z,68.10
2017-12-15T19:22:30.597Z,67.40
2017-12-15T19:24:59.329Z,67.20
2017-12-15T19:27:27.664Z,67.40
2017-12-15T19:29:55.946Z,67.40
2017-12-15T19:32:25.006Z,67.60
2017-12-15T19:34:54.148Z,66.90
2017-12-15T19:37:23.248Z,67.10
2017-12-15T19:39:52.286Z,67.20
2017-12-15T19:42:20.855Z,67.10
2017-12-15T19:44:49.204Z,67.00
2017-12-15T19:47:18.231Z,66.70
2017-12-15T19:49:46.529Z,66.60
2017-12-15T19:52:15.028Z,66.90
2017-12-15T19:54:44.172Z,66.80
2017-12-15T19:57:12.595Z,66.70
2017-12-15T19:59:42.078Z,66.90
2017-12-15T20:02:10.518Z,67.00
2017-12-15T20:04:38.845Z,66.60
2017-12-15T20:07:07.284Z,66.70
2017-12-15T20:09:35.892Z,67.10
2017-12-15T20:12:04.679Z,67.10
2017-12-15T20:14:33.237Z,67.10
2017-12-15T20:17:02.104Z,67.00
2017-12-15T20:19:31.330Z,67.20
2017-12-15T20:21:59.768Z,67.20
2017-12-15T20:24:28.210Z,68.00
2017-12-15T20:26:56.690Z,67.50
2017-12-15T20:29:25.235Z,67.50
2017-12-15T20:31:53.659Z,67.50
2017-12-15T20:34:22.536Z,67.40
2017-12-15T20:36:50.931Z,67.00
2017-12-15T20:39:19.463Z,67.10
2017-12-15T20:41:47.974Z,66.50
2017-12-15T20:44:16.440Z,67.70
2017-12-15T20:46:44.956Z,67.60
2017-12-15T20:49:13.492Z,67.10
2017-12-15T20:51:42.288Z,67.20
2017-12-15T20:54:10.822Z,68.10
2017-12-15T20:56:39.405Z,68.10
2017-12-15T20:59:08.764Z,67.60
2017-12-15T21:01:37.302Z,67.60
2017-12-15T21:04:06.562Z,67.40
2017-12-15T21:06:35.037Z,67.30
2017-12-15T21:09:03.833Z,67.20
2017-12-15T21:11:32.372Z,67.60
2017-12-15T21:14:00.697Z,67.20
2017-12-15T21:16:28.946Z,67.50
2017-12-15T21:18:58.010Z,67.10
2017-12-15T21:21:26.725Z,67.10
2017-12-15T21:23:55.722Z,67.10
2017-12-15T21:26:24.751Z,67.40
2017-12-15T21:28:53.009Z,67.40
2017-12-15T21:31:22.278Z,67.60
2017-12-15T21:33:50.535Z,67.40
2017-12-15T21:36:18.817Z,67.80
2017-12-15T21:38:47.513Z,67.60
2017-12-15T21:41:15.738Z,68.10
2017-12-15T21:43:43.983Z,67.90
2017-12-15T21:46:13.000Z,67.90
2017-12-15T21:48:41.245Z,67.90
2017-12-15T21:51:10.576Z,67.40
2017-12-15T21:53:38.843Z,67.40
2017-12-15T21:56:07.094Z,67.50
2017-12-15T21:58:36.167Z,67.20
2017-12-15T22:01:04.471Z,66.80
2017-12-15T22:03:33.858Z,67.00
2017-12-15T22:06:02.119Z,67.00
2017-12-15T22:08:31.154Z,66.70
2017-12-15T22:11:00.218Z,66.90
2017-12-15T22:13:28.499Z,67.00
2017-12-15T22:15:56.807Z,67.90
2017-12-15T22:18:25.853Z,66.90
2017-12-15T22:20:54.100Z,67.00
2017-12-15T22:23:23.184Z,68.40
2017-12-15T22:25:51.946Z,68.20
2017-12-15T22:28:20.970Z,67.50
2017-12-15T22:30:49.219Z,67.40
2017-12-15T22:33:17.769Z,67.90
2017-12-15T22:35:46.017Z,67.50
2017-12-15T22:38:14.268Z,67.20
2017-12-15T22:40:42.546Z,67.40
2017-12-15T22:43:10.804Z,67.00
2017-12-15T22:45:39.111Z,66.70
2017-12-15T22:48:07.360Z,66.90
2017-12-15T22:50:36.376Z,68.20
2017-12-15T22:53:04.662Z,68.10
2017-12-15T22:55:32.903Z,67.70
2017-12-15T22:58:02.411Z,67.60
2017-12-15T23:00:31.475Z,67.10
2017-12-15T23:02:59.723Z,67.00
2017-12-15T23:05:27.975Z,68.30
2017-12-15T23:07:56.210Z,67.70
2017-12-15T23:10:24.522Z,67.10
2017-12-15T23:12:53.527Z,67.20
2017-12-15T23:15:22.142Z,67.20
2017-12-15T23:17:50.377Z,68.20
2017-12-15T23:20:18.981Z,67.50
2017-12-15T23:22:47.280Z,67.70
2017-12-15T23:25:15.595Z,67.50
2017-12-15T23:27:43.904Z,67.20
2017-12-15T23:30:12.174Z,67.60
2017-12-15T23:32:40.744Z,67.30
2017-12-15T23:35:09.736Z,68.50
2017-12-15T23:37:38.790Z,68.50
2017-12-15T23:40:07.826Z,68.10
2017-12-15T23:42:36.885Z,68.00
2017-12-15T23:45:05.128Z,67.90
2017-12-15T23:47:33.479Z,67.80
2017-12-15T23:50:02.955Z,67.20
2017-12-15T23:52:31.233Z,67.10
